Rotherham, United Kingdom
Current Conditions -  °F | °C
As of 11:50 PM on Monday 22 Dec 2014 (Local Time) from EGCN Reporting Station
Overcast Overcast  
Wind Chill: 54°   Ceiling: 1700
Heat Index: 54°   Visibility: 6mi
Dew Point: 50°   Wind: 17mph
Humidity: 88%   Direction: 210°SSW
Pressure: 29.85"   Gusts: NA
Location:  53.43°N, 1.36°W
Report Text: EGCN 222350Z 21015KT 9999 SCT012 BKN017 OVC022 12/10 Q1011
Loading
Personal Weather Stations






























Interactive Weather Map New forecast layout! Learn more

10-Day Weather Forecast

Advertisements
Track Severe Weather on mobile